Huntsville, Alabama
Current Conditions -  °F | °C
As of 3:53 PM on Tuesday 21 Oct 2014 (Local Time) from KHSV Reporting Station
Clear Clear  
Wind Chill: 76°   Ceiling: Unl
Heat Index: 76°   Visibility: 10mi
Dew Point: 44°   Wind: 7mph
Humidity: 32%   Direction: 320°NW
Pressure: 30.01"   Gusts: NA
Location:  34.73°N, 86.58°W
Report Text: KHSV 212053Z 32006KT 10SM CLR 24/07 A3001 RMK AO2 SLP157 T02440067 56012
Loading
Personal Weather Stations






























Interactive Weather Map New forecast layout! Learn more

10-Day Weather Forecast

Advertisements
Track Severe Weather on mobile